createdAt,value
2019-03-30T00:00:17.393Z,1021.7
2019-03-30T00:01:26.839Z,1021.7
2019-03-30T00:02:36.529Z,1021.63
2019-03-30T00:03:46.494Z,1021.65
2019-03-30T00:04:56.173Z,1021.58
2019-03-30T00:06:06.130Z,1021.58
2019-03-30T00:07:15.828Z,1021.6
2019-03-30T00:08:25.832Z,1021.58
2019-03-30T00:09:35.804Z,1021.6
2019-03-30T00:10:45.786Z,1021.59
2019-03-30T00:11:57.792Z,1021.58
2019-03-30T00:13:07.654Z,1021.57
2019-03-30T00:14:17.358Z,1021.52
2019-03-30T00:15:27.045Z,1021.49
2019-03-30T00:16:36.994Z,1021.5
2019-03-30T00:17:47.187Z,1021.51
2019-03-30T00:18:56.929Z,1021.53
2019-03-30T00:20:06.874Z,1021.54
2019-03-30T00:21:16.564Z,1021.52
2019-03-30T00:22:26.259Z,1021.5
2019-03-30T00:23:36.234Z,1021.5
2019-03-30T00:24:46.180Z,1021.49
2019-03-30T00:25:56.129Z,1021.5
2019-03-30T00:27:05.838Z,1021.52
2019-03-30T00:28:15.793Z,1021.46
2019-03-30T00:29:25.510Z,1021.45
2019-03-30T00:30:34.950Z,1021.43
2019-03-30T00:31:44.910Z,1021.48
2019-03-30T00:32:54.632Z,1021.4
2019-03-30T00:34:04.607Z,1021.42
2019-03-30T00:35:14.555Z,1021.42
2019-03-30T00:36:24.489Z,1021.35
2019-03-30T00:37:34.493Z,1021.33
2019-03-30T00:38:44.179Z,1021.35
2019-03-30T00:39:54.118Z,1021.32
2019-03-30T00:41:03.574Z,1021.34
2019-03-30T00:42:13.282Z,1021.27
2019-03-30T00:43:23.264Z,1021.28
2019-03-30T00:44:33.212Z,1021.28
2019-03-30T00:45:42.911Z,1021.28
2019-03-30T00:46:52.853Z,1021.32
2019-03-30T00:48:02.311Z,1021.31
2019-03-30T00:49:12.255Z,1021.31
2019-03-30T00:50:22.201Z,1021.29
2019-03-30T00:51:31.893Z,1021.33
2019-03-30T00:52:41.611Z,1021.34
2019-03-30T00:53:51.547Z,1021.32
2019-03-30T00:55:00.985Z,1021.36
2019-03-30T00:56:10.943Z,1021.36
2019-03-30T00:57:20.673Z,1021.33
2019-03-30T00:58:30.110Z,1021.31
2019-03-30T00:59:40.050Z,1021.28
2019-03-30T01:00:50.092Z,1021.31
2019-03-30T01:01:59.817Z,1021.26
2019-03-30T01:03:09.775Z,1021.23
2019-03-30T01:04:19.717Z,1021.19
2019-03-30T01:05:29.406Z,1021.22
2019-03-30T01:06:39.098Z,1021.16
2019-03-30T01:07:49.071Z,1021.17
2019-03-30T01:08:58.769Z,1021.13
2019-03-30T01:10:08.467Z,1021.14
2019-03-30T01:11:18.415Z,1021.12
2019-03-30T01:12:27.862Z,1021.07
2019-03-30T01:13:37.806Z,1021.13
2019-03-30T01:14:47.415Z,1021.12
2019-03-30T01:15:56.849Z,1021.11
2019-03-30T01:17:06.539Z,1021.11
2019-03-30T01:18:16.233Z,1021.06
2019-03-30T01:19:25.677Z,1021.12
2019-03-30T01:20:35.635Z,1021.09
2019-03-30T01:21:45.581Z,1021.06
2019-03-30T01:22:56.844Z,1021.1
2019-03-30T01:24:06.794Z,1021.1
2019-03-30T01:25:16.754Z,1021.08
2019-03-30T01:26:26.709Z,1021.12
2019-03-30T01:27:36.728Z,1021.06
2019-03-30T01:28:46.699Z,1021.08
2019-03-30T01:29:56.633Z,1021.07
2019-03-30T01:31:06.340Z,1021.08
2019-03-30T01:32:16.050Z,1021.09
2019-03-30T01:33:26.051Z,1021.1
2019-03-30T01:34:35.747Z,1021.1
2019-03-30T01:35:45.513Z,1021.07
2019-03-30T01:36:54.940Z,1021.1
2019-03-30T01:38:04.642Z,1021.12
2019-03-30T01:39:14.598Z,1021.12
2019-03-30T01:40:24.556Z,1021.09
2019-03-30T01:41:34.498Z,1021.08
2019-03-30T01:42:44.432Z,1021.08
2019-03-30T01:43:53.626Z,1021.07
2019-03-30T01:45:03.578Z,1021.05
2019-03-30T01:46:13.538Z,1021.05
2019-03-30T01:47:23.495Z,1021.06
2019-03-30T01:48:33.188Z,1021.05
2019-03-30T01:49:43.182Z,1021.03
2019-03-30T01:50:52.379Z,1021.04
2019-03-30T01:52:02.347Z,1021.01
2019-03-30T01:53:12.056Z,1021
2019-03-30T01:54:21.500Z,1020.95
2019-03-30T01:55:31.642Z,1020.98
2019-03-30T01:56:41.086Z,1020.98
2019-03-30T01:57:51.045Z,1020.97
2019-03-30T01:59:01.006Z,1021.02
2019-03-30T02:00:10.943Z,1021.02
2019-03-30T02:01:20.880Z,1021
2019-03-30T02:02:30.579Z,1021.05
2019-03-30T02:03:40.536Z,1021.08
2019-03-30T02:04:50.758Z,1021.02
2019-03-30T02:06:00.831Z,1021.08
2019-03-30T02:07:10.274Z,1021.04
2019-03-30T02:08:20.224Z,1020.97
2019-03-30T02:09:30.174Z,1021.01
2019-03-30T02:10:40.124Z,1020.99
2019-03-30T02:11:50.076Z,1020.96
2019-03-30T02:12:59.998Z,1020.96
2019-03-30T02:14:09.934Z,1020.95
2019-03-30T02:15:19.372Z,1020.93
2019-03-30T02:16:28.829Z,1020.91
2019-03-30T02:17:38.778Z,1020.89
2019-03-30T02:18:48.494Z,1020.93
2019-03-30T02:19:58.450Z,1020.91
2019-03-30T02:21:08.160Z,1020.91
2019-03-30T02:22:18.110Z,1020.94
2019-03-30T02:23:28.049Z,1020.92
2019-03-30T02:24:37.989Z,1020.92
2019-03-30T02:25:47.931Z,1020.87
2019-03-30T02:26:57.862Z,1020.92
2019-03-30T02:28:07.817Z,1020.89
2019-03-30T02:29:17.754Z,1020.85
2019-03-30T02:30:27.697Z,1020.86
2019-03-30T02:31:37.698Z,1020.86
2019-03-30T02:32:47.411Z,1020.83
2019-03-30T02:33:57.105Z,1020.83
2019-03-30T02:35:07.096Z,1020.83
2019-03-30T02:36:17.062Z,1020.84
2019-03-30T02:37:26.777Z,1020.87
2019-03-30T02:38:36.734Z,1020.85
2019-03-30T02:39:46.706Z,1020.82
2019-03-30T02:40:56.678Z,1020.8
2019-03-30T02:42:06.497Z,1020.81
2019-03-30T02:43:16.229Z,1020.8
2019-03-30T02:44:26.206Z,1020.77
2019-03-30T02:45:36.176Z,1020.74
2019-03-30T02:46:46.272Z,1020.78
2019-03-30T02:47:56.246Z,1020.73
2019-03-30T02:49:05.735Z,1020.77
2019-03-30T02:50:15.466Z,1020.75
2019-03-30T02:51:25.434Z,1020.72
2019-03-30T02:52:35.393Z,1020.7
2019-03-30T02:53:45.113Z,1020.7
2019-03-30T02:54:55.072Z,1020.74
2019-03-30T02:56:05.031Z,1020.71
2019-03-30T02:57:14.985Z,1020.67
2019-03-30T02:58:24.460Z,1020.68
2019-03-30T02:59:34.431Z,1020.65
2019-03-30T03:00:44.141Z,1020.66
2019-03-30T03:01:53.829Z,1020.65
2019-03-30T03:03:03.627Z,1020.67
2019-03-30T03:04:13.342Z,1020.63
2019-03-30T03:05:23.315Z,1020.6
2019-03-30T03:06:33.029Z,1020.63
2019-03-30T03:07:42.562Z,1020.56
2019-03-30T03:08:52.027Z,1020.55
2019-03-30T03:10:01.792Z,1020.55
2019-03-30T03:11:11.745Z,1020.57
2019-03-30T03:12:21.703Z,1020.58
2019-03-30T03:13:31.414Z,1020.54
2019-03-30T03:14:41.369Z,1020.53
2019-03-30T03:15:51.064Z,1020.49
2019-03-30T03:17:00.524Z,1020.5
2019-03-30T03:18:10.689Z,1020.48
2019-03-30T03:19:20.419Z,1020.48
2019-03-30T03:20:29.878Z,1020.44
2019-03-30T03:21:39.598Z,1020.44
2019-03-30T03:22:49.641Z,1020.44
2019-03-30T03:23:59.349Z,1020.44
2019-03-30T03:25:09.314Z,1020.47
2019-03-30T03:26:19.279Z,1020.45
2019-03-30T03:27:29.285Z,1020.41
2019-03-30T03:28:39.249Z,1020.44
2019-03-30T03:29:48.695Z,1020.45
2019-03-30T03:30:58.394Z,1020.45
2019-03-30T03:32:08.755Z,1020.43
2019-03-30T03:33:18.652Z,1020.42
2019-03-30T03:34:28.352Z,1020.4
2019-03-30T03:35:38.196Z,1020.4
2019-03-30T03:36:47.932Z,1020.38
2019-03-30T03:37:57.637Z,1020.36
2019-03-30T03:39:07.582Z,1020.33
2019-03-30T03:40:17.801Z,1020.33
2019-03-30T03:41:27.549Z,1020.32
2019-03-30T03:42:37.274Z,1020.34
2019-03-30T03:43:47.259Z,1020.31
2019-03-30T03:44:57.247Z,1020.28
2019-03-30T03:46:06.894Z,1020.29
2019-03-30T03:47:16.897Z,1020.29
2019-03-30T03:48:26.649Z,1020.29
2019-03-30T03:49:36.339Z,1020.34
2019-03-30T03:50:46.388Z,1020.33
2019-03-30T03:51:56.373Z,1020.34
2019-03-30T03:53:06.379Z,1020.32
2019-03-30T03:54:16.347Z,1020.37
2019-03-30T03:55:26.299Z,1020.35
2019-03-30T03:56:36.011Z,1020.35
2019-03-30T03:57:45.975Z,1020.27
2019-03-30T03:58:55.944Z,1020.28
2019-03-30T04:00:05.939Z,1020.28
2019-03-30T04:01:15.666Z,1020.24
2019-03-30T04:02:25.119Z,1020.26
2019-03-30T04:03:35.118Z,1020.19
2019-03-30T04:04:47.258Z,1020.17
2019-03-30T04:05:57.090Z,1020.17
2019-03-30T04:07:07.163Z,1020.15
2019-03-30T04:08:16.609Z,1020.16
2019-03-30T04:09:26.585Z,1020.12
2019-03-30T04:10:36.563Z,1020.12
2019-03-30T04:11:46.508Z,1020.09
2019-03-30T04:12:56.461Z,1020.09
2019-03-30T04:14:09.871Z,1020.09
2019-03-30T04:15:19.931Z,1020.06
2019-03-30T04:16:29.652Z,1020.07
2019-03-30T04:17:39.449Z,1020.02
2019-03-30T04:18:49.431Z,1020.07
2019-03-30T04:19:59.393Z,1020.07
2019-03-30T04:21:09.340Z,1020.06
2019-03-30T04:22:19.047Z,1020.09
2019-03-30T04:23:29.001Z,1020.1
2019-03-30T04:24:38.718Z,1020.07
2019-03-30T04:25:48.695Z,1020.07
2019-03-30T04:26:58.696Z,1020.12
2019-03-30T04:28:08.424Z,1020.06
2019-03-30T04:29:18.391Z,1020.06
2019-03-30T04:30:28.418Z,1020.08
2019-03-30T04:31:38.408Z,1020.11
2019-03-30T04:32:48.114Z,1020.08
2019-03-30T04:33:58.061Z,1020.07
2019-03-30T04:35:07.769Z,1020.07
2019-03-30T04:36:17.228Z,1020.04
2019-03-30T04:37:27.208Z,1020.04
2019-03-30T04:38:36.904Z,1020.05
2019-03-30T04:39:46.855Z,1020.06
2019-03-30T04:40:56.815Z,1019.98
2019-03-30T04:42:06.527Z,1019.95
2019-03-30T04:43:16.474Z,1019.97
2019-03-30T04:44:26.422Z,1019.93
2019-03-30T04:45:36.368Z,1019.9
2019-03-30T04:46:46.304Z,1019.91
2019-03-30T04:47:56.270Z,1019.89
2019-03-30T04:49:06.049Z,1019.93
2019-03-30T04:50:15.518Z,1019.9
2019-03-30T04:51:25.210Z,1019.96
2019-03-30T04:52:35.159Z,1019.95
2019-03-30T04:53:44.845Z,1019.97
2019-03-30T04:54:54.531Z,1019.99
2019-03-30T04:56:04.472Z,1019.97
2019-03-30T04:57:14.415Z,1019.97
2019-03-30T04:58:24.359Z,1019.96
2019-03-30T04:59:34.306Z,1019.92
2019-03-30T05:00:44.257Z,1019.93
2019-03-30T05:01:54.205Z,1019.95
2019-03-30T05:03:03.911Z,1019.93
2019-03-30T05:04:13.623Z,1019.88
2019-03-30T05:05:23.334Z,1019.91
2019-03-30T05:06:33.061Z,1019.88
2019-03-30T05:07:43.016Z,1019.86
2019-03-30T05:08:52.977Z,1019.8
2019-03-30T05:10:02.932Z,1019.82
2019-03-30T05:11:12.637Z,1019.83
2019-03-30T05:12:22.075Z,1019.85
2019-03-30T05:13:31.781Z,1019.83
2019-03-30T05:14:41.473Z,1019.85
2019-03-30T05:15:51.433Z,1019.86
2019-03-30T05:17:01.380Z,1019.87
2019-03-30T05:18:11.312Z,1019.81
2019-03-30T05:19:20.991Z,1019.85
2019-03-30T05:20:30.441Z,1019.87
2019-03-30T05:21:40.461Z,1019.88
2019-03-30T05:22:51.401Z,1019.85
2019-03-30T05:24:01.474Z,1019.82
2019-03-30T05:25:11.444Z,1019.84
2019-03-30T05:26:21.149Z,1019.86
2019-03-30T05:27:30.832Z,1019.87
2019-03-30T05:28:40.317Z,1019.85
2019-03-30T05:29:50.245Z,1019.87
2019-03-30T05:31:00.216Z,1019.85
2019-03-30T05:32:10.155Z,1019.83
2019-03-30T05:33:19.860Z,1019.85
2019-03-30T05:34:29.805Z,1019.86
2019-03-30T05:35:39.506Z,1019.88
2019-03-30T05:36:48.692Z,1019.82
2019-03-30T05:38:01.282Z,1019.83
2019-03-30T05:39:11.289Z,1019.83
2019-03-30T05:40:20.987Z,1019.84
2019-03-30T05:41:30.669Z,1019.83
2019-03-30T05:42:40.429Z,1019.87
2019-03-30T05:43:50.372Z,1019.85
2019-03-30T05:45:00.459Z,1019.84
2019-03-30T05:46:09.943Z,1019.84
2019-03-30T05:47:19.892Z,1019.84
2019-03-30T05:48:29.593Z,1019.83
2019-03-30T05:49:39.547Z,1019.81
2019-03-30T05:50:49.493Z,1019.84
2019-03-30T05:51:59.439Z,1019.83
2019-03-30T05:53:09.141Z,1019.82
2019-03-30T05:54:19.235Z,1019.86
2019-03-30T05:55:28.935Z,1019.88
2019-03-30T05:56:38.874Z,1019.91
2019-03-30T05:57:48.583Z,1019.87
2019-03-30T05:58:58.529Z,1019.92
2019-03-30T06:00:08.463Z,1019.83
2019-03-30T06:01:18.161Z,1019.84
2019-03-30T06:02:28.095Z,1019.81
2019-03-30T06:03:38.031Z,1019.77
2019-03-30T06:04:47.979Z,1019.81
2019-03-30T06:05:59.243Z,1019.77
2019-03-30T06:07:08.963Z,1019.75
2019-03-30T06:08:18.678Z,1019.72
2019-03-30T06:09:28.361Z,1019.74
2019-03-30T06:10:38.841Z,1019.72
2019-03-30T06:11:49.017Z,1019.7
2019-03-30T06:12:58.711Z,1019.74
2019-03-30T06:14:08.729Z,1019.71
2019-03-30T06:15:18.679Z,1019.74
2019-03-30T06:16:28.359Z,1019.72
2019-03-30T06:17:38.057Z,1019.7
2019-03-30T06:18:48.023Z,1019.7
2019-03-30T06:19:57.453Z,1019.68
2019-03-30T06:21:07.155Z,1019.69
2019-03-30T06:22:17.111Z,1019.7
2019-03-30T06:23:40.175Z,1019.69
2019-03-30T06:24:51.507Z,1019.71
2019-03-30T06:26:01.498Z,1019.67
2019-03-30T06:27:11.353Z,1019.66
2019-03-30T06:28:21.299Z,1019.67
2019-03-30T06:29:31.042Z,1019.63
2019-03-30T06:30:40.992Z,1019.63
2019-03-30T06:31:50.927Z,1019.66
2019-03-30T06:33:00.894Z,1019.63
2019-03-30T06:34:10.611Z,1019.67
2019-03-30T06:35:20.318Z,1019.59
2019-03-30T06:36:30.268Z,1019.59
2019-03-30T06:37:39.943Z,1019.62
2019-03-30T06:38:49.880Z,1019.62
2019-03-30T06:39:59.824Z,1019.64
2019-03-30T06:41:09.541Z,1019.64
2019-03-30T06:42:19.495Z,1019.59
2019-03-30T06:43:29.451Z,1019.62
2019-03-30T06:44:39.141Z,1019.62
2019-03-30T06:45:49.102Z,1019.55
2019-03-30T06:46:59.037Z,1019.59
2019-03-30T06:48:09.003Z,1019.6
2019-03-30T06:49:18.696Z,1019.56
2019-03-30T06:50:28.395Z,1019.56
2019-03-30T06:51:38.337Z,1019.56
2019-03-30T06:52:57.257Z,1019.51
2019-03-30T06:54:08.031Z,1019.53
2019-03-30T06:55:20.087Z,1019.52
2019-03-30T06:56:29.797Z,1019.51
2019-03-30T06:57:39.732Z,1019.5
2019-03-30T06:58:49.670Z,1019.47
2019-03-30T06:59:59.615Z,1019.49
2019-03-30T07:01:09.797Z,1019.48
2019-03-30T07:02:19.500Z,1019.47
2019-03-30T07:03:29.443Z,1019.47
2019-03-30T07:04:39.159Z,1019.42
2019-03-30T07:05:48.347Z,1019.39
2019-03-30T07:06:58.055Z,1019.38
2019-03-30T07:08:07.749Z,1019.5
2019-03-30T07:09:17.694Z,1019.47
2019-03-30T07:10:27.157Z,1019.47
2019-03-30T07:11:38.989Z,1019.49
2019-03-30T07:12:48.948Z,1019.46
2019-03-30T07:13:58.661Z,1019.42
2019-03-30T07:15:08.380Z,1019.46
2019-03-30T07:16:18.073Z,1019.47
2019-03-30T07:17:28.016Z,1019.44
2019-03-30T07:18:37.956Z,1019.38
2019-03-30T07:19:47.943Z,1019.4
2019-03-30T07:20:57.906Z,1019.43
2019-03-30T07:22:07.595Z,1019.42
2019-03-30T07:23:16.790Z,1019.43
2019-03-30T07:24:26.721Z,1019.4
2019-03-30T07:25:36.670Z,1019.39
2019-03-30T07:26:46.371Z,1019.42
2019-03-30T07:27:56.319Z,1019.37
2019-03-30T07:29:06.070Z,1019.39
2019-03-30T07:30:16.005Z,1019.38
2019-03-30T07:31:25.706Z,1019.39
2019-03-30T07:32:35.732Z,1019.37
2019-03-30T07:33:45.447Z,1019.44
2019-03-30T07:34:55.119Z,1019.45
2019-03-30T07:36:04.818Z,1019.43
2019-03-30T07:37:14.534Z,1019.48
2019-03-30T07:38:24.475Z,1019.43
2019-03-30T07:39:34.426Z,1019.46
2019-03-30T07:40:44.135Z,1019.44
2019-03-30T07:41:54.071Z,1019.5
2019-03-30T07:43:03.776Z,1019.49
2019-03-30T07:44:13.465Z,1019.44
2019-03-30T07:45:23.424Z,1019.44
2019-03-30T07:46:32.725Z,1019.45
2019-03-30T07:47:42.662Z,1019.46
2019-03-30T07:48:52.367Z,1019.44
2019-03-30T07:50:02.075Z,1019.45
2019-03-30T07:51:12.029Z,1019.44
2019-03-30T07:52:21.729Z,1019.45
2019-03-30T07:53:43.743Z,1019.39
2019-03-30T07:54:54.403Z,1019.4
2019-03-30T07:56:08.459Z,1019.42
2019-03-30T07:57:18.838Z,1019.45
2019-03-30T07:58:28.538Z,1019.43
2019-03-30T07:59:38.515Z,1019.49
2019-03-30T08:00:48.254Z,1019.46
2019-03-30T08:01:57.706Z,1019.45
2019-03-30T08:03:07.644Z,1019.45
2019-03-30T08:04:17.351Z,1019.48
2019-03-30T08:05:29.226Z,1019.46
2019-03-30T08:06:39.186Z,1019.45
2019-03-30T08:07:49.161Z,1019.41
2019-03-30T08:08:59.127Z,1019.41
2019-03-30T08:10:09.077Z,1019.37
2019-03-30T08:11:18.780Z,1019.39
2019-03-30T08:12:28.734Z,1019.4
2019-03-30T08:13:38.699Z,1019.38
2019-03-30T08:14:48.644Z,1019.37
2019-03-30T08:15:58.366Z,1019.36
2019-03-30T08:17:08.173Z,1019.37
2019-03-30T08:18:18.248Z,1019.33
2019-03-30T08:19:28.184Z,1019.35
2019-03-30T08:20:38.120Z,1019.32
2019-03-30T08:21:48.082Z,1019.33
2019-03-30T08:22:57.788Z,1019.35
2019-03-30T08:24:07.231Z,1019.31
2019-03-30T08:25:17.170Z,1019.34
2019-03-30T08:26:26.910Z,1019.33
2019-03-30T08:27:38.263Z,1019.33
2019-03-30T08:28:48.218Z,1019.28
2019-03-30T08:29:58.156Z,1019.28
2019-03-30T08:31:08.134Z,1019.31
2019-03-30T08:32:18.066Z,1019.3
2019-03-30T08:33:28.012Z,1019.29
2019-03-30T08:34:37.946Z,1019.26
2019-03-30T08:35:47.907Z,1019.31
2019-03-30T08:36:59.249Z,1019.33
2019-03-30T08:38:09.141Z,1019.28
2019-03-30T08:39:19.083Z,1019.22
2019-03-30T08:40:29.037Z,1019.22
2019-03-30T08:41:38.980Z,1019.18
2019-03-30T08:42:48.672Z,1019.2
2019-03-30T08:43:58.617Z,1019.09
2019-03-30T08:45:08.577Z,1019.11
2019-03-30T08:46:18.534Z,1019.14
2019-03-30T08:47:28.229Z,1019.11
2019-03-30T08:48:37.958Z,1019.17
2019-03-30T08:49:47.644Z,1019.18
2019-03-30T08:50:57.377Z,1019.15
2019-03-30T08:52:07.073Z,1019.11
2019-03-30T08:53:16.784Z,1019.15
2019-03-30T08:54:26.484Z,1019.14
2019-03-30T08:55:36.448Z,1019.08
2019-03-30T08:56:46.143Z,1019.09
2019-03-30T08:57:55.864Z,1019.11
2019-03-30T08:59:05.678Z,1019.05
2019-03-30T09:00:15.369Z,1019.08
2019-03-30T09:01:24.828Z,1019.08
2019-03-30T09:02:34.517Z,1019.01
2019-03-30T09:03:44.209Z,1019.04
2019-03-30T09:04:54.153Z,1018.96
2019-03-30T09:06:03.851Z,1018.94
2019-03-30T09:07:13.822Z,1018.94
2019-03-30T09:08:23.783Z,1018.99
2019-03-30T09:09:33.742Z,1018.92
2019-03-30T09:10:43.438Z,1018.88
2019-03-30T09:11:53.129Z,1018.95
2019-03-30T09:13:02.832Z,1018.87
2019-03-30T09:14:12.557Z,1018.88
2019-03-30T09:15:22.518Z,1018.85
2019-03-30T09:16:32.471Z,1018.9
2019-03-30T09:17:42.432Z,1018.88
2019-03-30T09:18:52.462Z,1018.86
2019-03-30T09:20:02.224Z,1018.8
2019-03-30T09:21:11.940Z,1018.76
2019-03-30T09:22:21.410Z,1018.78
2019-03-30T09:23:31.124Z,1018.75
2019-03-30T09:24:41.096Z,1018.73
2019-03-30T09:25:51.085Z,1018.7
2019-03-30T09:27:01.026Z,1018.73
2019-03-30T09:28:10.740Z,1018.67
2019-03-30T09:29:20.689Z,1018.65
2019-03-30T09:30:30.392Z,1018.63
2019-03-30T09:31:40.356Z,1018.61
2019-03-30T09:32:50.313Z,1018.59
2019-03-30T09:33:59.870Z,1018.56
2019-03-30T09:35:09.849Z,1018.59
2019-03-30T09:36:19.821Z,1018.61
2019-03-30T09:37:29.362Z,1018.58
2019-03-30T09:38:39.348Z,1018.56
2019-03-30T09:39:49.318Z,1018.56
2019-03-30T09:40:59.370Z,1018.54
2019-03-30T09:42:09.336Z,1018.54
2019-03-30T09:43:19.042Z,1018.54
2019-03-30T09:44:28.765Z,1018.49
2019-03-30T09:45:38.728Z,1018.49
2019-03-30T09:46:48.713Z,1018.47
2019-03-30T09:47:58.666Z,1018.5
2019-03-30T09:49:08.168Z,1018.47
2019-03-30T09:50:17.880Z,1018.45
2019-03-30T09:51:27.849Z,1018.42
2019-03-30T09:52:37.786Z,1018.41
2019-03-30T09:53:47.274Z,1018.42
2019-03-30T09:54:57.269Z,1018.4
2019-03-30T09:56:06.966Z,1018.42
2019-03-30T09:57:16.933Z,1018.32
2019-03-30T09:58:26.916Z,1018.37
2019-03-30T09:59:36.616Z,1018.34
2019-03-30T10:00:46.567Z,1018.37
2019-03-30T10:01:56.547Z,1018.33
2019-03-30T10:03:06.532Z,1018.34
2019-03-30T10:04:15.998Z,1018.33
2019-03-30T10:05:25.693Z,1018.33
2019-03-30T10:06:35.663Z,1018.33
2019-03-30T10:07:45.627Z,1018.31
2019-03-30T10:08:55.622Z,1018.32
2019-03-30T10:10:05.529Z,1018.28
2019-03-30T10:11:15.481Z,1018.28
2019-03-30T10:12:25.182Z,1018.3
2019-03-30T10:13:34.633Z,1018.21
2019-03-30T10:14:44.334Z,1018.21
2019-03-30T10:15:54.291Z,1018.24
2019-03-30T10:17:04.038Z,1018.19
2019-03-30T10:18:14.018Z,1018.14
2019-03-30T10:19:23.739Z,1018.12
2019-03-30T10:20:35.508Z,1018.09
2019-03-30T10:21:45.462Z,1018.16
2019-03-30T10:22:55.420Z,1018.07
2019-03-30T10:24:05.368Z,1018.14
2019-03-30T10:25:15.068Z,1018.07
2019-03-30T10:26:25.028Z,1018.08
2019-03-30T10:27:34.975Z,1018.05
2019-03-30T10:28:46.993Z,1018.04
2019-03-30T10:29:57.078Z,1017.96
2019-03-30T10:31:06.806Z,1017.95
2019-03-30T10:32:16.764Z,1017.94
2019-03-30T10:33:26.718Z,1018
2019-03-30T10:34:39.373Z,1017.97
2019-03-30T10:35:49.270Z,1017.88
2019-03-30T10:36:59.229Z,1017.85
2019-03-30T10:38:08.942Z,1017.86
2019-03-30T10:39:18.660Z,1017.87
2019-03-30T10:40:28.614Z,1017.89
2019-03-30T10:41:38.322Z,1017.82
2019-03-30T10:42:48.284Z,1017.81
2019-03-30T10:43:58.255Z,1017.8
2019-03-30T10:45:08.286Z,1017.86
2019-03-30T10:46:18.251Z,1017.69
2019-03-30T10:47:28.216Z,1017.8
2019-03-30T10:48:37.919Z,1017.9
2019-03-30T10:49:48.053Z,1017.71
2019-03-30T10:50:58.028Z,1017.7
2019-03-30T10:52:07.471Z,1017.79
2019-03-30T10:53:17.205Z,1017.7
2019-03-30T10:54:26.913Z,1017.76
2019-03-30T10:55:36.624Z,1017.74
2019-03-30T10:56:46.334Z,1017.66
2019-03-30T10:57:58.373Z,1017.64
2019-03-30T10:59:08.011Z,1017.66
2019-03-30T11:00:17.726Z,1017.65
2019-03-30T11:01:27.696Z,1017.62
2019-03-30T11:02:37.645Z,1017.63
2019-03-30T11:03:47.373Z,1017.53
2019-03-30T11:04:57.093Z,1017.52
2019-03-30T11:06:07.055Z,1017.55
2019-03-30T11:07:16.991Z,1017.66
2019-03-30T11:08:26.966Z,1017.61
2019-03-30T11:09:36.675Z,1017.61
2019-03-30T11:10:50.039Z,1017.45
2019-03-30T11:11:59.995Z,1017.52
2019-03-30T11:13:09.968Z,1017.51
2019-03-30T11:14:19.955Z,1017.5
2019-03-30T11:15:29.973Z,1017.47
2019-03-30T11:16:41.809Z,1017.51
2019-03-30T11:17:51.599Z,1017.39
2019-03-30T11:19:01.543Z,1017.39
2019-03-30T11:20:11.492Z,1017.47
2019-03-30T11:21:21.289Z,1017.43
2019-03-30T11:22:31.237Z,1017.3
2019-03-30T11:23:41.235Z,1017.46
2019-03-30T11:24:51.187Z,1017.46
2019-03-30T11:26:14.987Z,1017.41
2019-03-30T11:27:24.694Z,1017.3
2019-03-30T11:28:34.405Z,1017.33
2019-03-30T11:29:44.125Z,1017.25
2019-03-30T11:30:53.837Z,1017.23
2019-03-30T11:32:06.012Z,1017.24
2019-03-30T11:33:15.737Z,1017.17
2019-03-30T11:34:25.454Z,1017.23
2019-03-30T11:35:35.431Z,1017.2
2019-03-30T11:36:45.145Z,1017.14
2019-03-30T11:37:55.115Z,1017.17
2019-03-30T11:39:05.159Z,1017.14
2019-03-30T11:40:14.903Z,1017.08
2019-03-30T11:41:25.007Z,1017.11
2019-03-30T11:42:35.093Z,1017.06
2019-03-30T11:43:45.101Z,1017.04
2019-03-30T11:44:55.063Z,1017.01
2019-03-30T11:46:04.785Z,1017.03
2019-03-30T11:47:14.506Z,1017.04
2019-03-30T11:48:24.457Z,1016.98
2019-03-30T11:49:37.942Z,1017.09
2019-03-30T11:50:47.900Z,1016.99
2019-03-30T11:51:57.920Z,1017
2019-03-30T11:53:07.642Z,1016.95
2019-03-30T11:54:17.594Z,1016.87
2019-03-30T11:55:27.391Z,1016.83
2019-03-30T11:56:37.356Z,1016.83
2019-03-30T11:57:47.324Z,1016.78
2019-03-30T11:58:57.030Z,1016.78
2019-03-30T12:00:06.758Z,1016.8
2019-03-30T12:01:16.753Z,1016.74
2019-03-30T12:02:28.956Z,1016.77
2019-03-30T12:03:38.932Z,1016.68
2019-03-30T12:04:48.906Z,1016.63
2019-03-30T12:05:58.879Z,1016.72
2019-03-30T12:07:08.861Z,1016.66
2019-03-30T12:08:18.328Z,1016.62
2019-03-30T12:09:28.100Z,1016.64
2019-03-30T12:10:38.067Z,1016.52
2019-03-30T12:11:48.074Z,1016.54
2019-03-30T12:12:57.799Z,1016.53
2019-03-30T12:14:07.765Z,1016.52
2019-03-30T12:15:17.734Z,1016.53
2019-03-30T12:16:27.262Z,1016.45
2019-03-30T12:17:40.696Z,1016.42
2019-03-30T12:18:50.706Z,1016.44
2019-03-30T12:20:00.691Z,1016.41
2019-03-30T12:21:10.426Z,1016.47
2019-03-30T12:22:20.142Z,1016.4
2019-03-30T12:23:30.107Z,1016.32
2019-03-30T12:24:43.105Z,1016.31
2019-03-30T12:25:52.806Z,1016.27
2019-03-30T12:27:02.780Z,1016.27
2019-03-30T12:28:12.738Z,1016.26
2019-03-30T12:29:22.194Z,1016.19
2019-03-30T12:30:32.173Z,1016.23
2019-03-30T12:31:41.960Z,1016.22
2019-03-30T12:32:51.923Z,1016.09
2019-03-30T12:34:01.660Z,1016.11
2019-03-30T12:35:13.684Z,1016.19
2019-03-30T12:36:23.672Z,1016.05
2019-03-30T12:37:33.650Z,1016.01
2019-03-30T12:38:43.609Z,1016.09
2019-03-30T12:39:53.572Z,1016.1
2019-03-30T12:41:06.052Z,1016
2019-03-30T12:42:15.780Z,1016.04
2019-03-30T12:43:25.240Z,1016.02
2019-03-30T12:44:35.178Z,1016.06
2019-03-30T12:45:44.896Z,1016.06
2019-03-30T12:46:54.360Z,1016.03
2019-03-30T12:48:04.071Z,1016.01
2019-03-30T12:49:14.045Z,1015.99
2019-03-30T12:50:24.006Z,1015.94
2019-03-30T12:51:33.975Z,1015.96
2019-03-30T12:52:43.938Z,1015.92
2019-03-30T12:53:53.905Z,1015.95
2019-03-30T12:55:03.616Z,1015.97
2019-03-30T12:56:13.562Z,1015.97
2019-03-30T12:57:23.287Z,1015.88
2019-03-30T12:58:33.011Z,1015.88
2019-03-30T12:59:42.970Z,1015.91
2019-03-30T13:00:52.952Z,1016.05
2019-03-30T13:02:02.915Z,1016.04
2019-03-30T13:03:12.873Z,1015.9
2019-03-30T13:04:22.590Z,1015.9
2019-03-30T13:05:32.307Z,1016.05
2019-03-30T13:06:42.003Z,1015.87
2019-03-30T13:07:51.717Z,1015.84
2019-03-30T13:09:01.694Z,1015.82
2019-03-30T13:10:11.647Z,1015.83
2019-03-30T13:11:21.602Z,1015.86
2019-03-30T13:12:31.322Z,1015.78
2019-03-30T13:13:41.295Z,1015.8
2019-03-30T13:14:51.019Z,1015.78
2019-03-30T13:16:00.741Z,1015.76
2019-03-30T13:17:10.705Z,1015.75
2019-03-30T13:18:20.661Z,1015.73
2019-03-30T13:19:30.634Z,1015.76
2019-03-30T13:20:40.598Z,1015.79
2019-03-30T13:21:52.383Z,1015.67
2019-03-30T13:23:03.185Z,1015.68
2019-03-30T13:24:13.154Z,1015.89
2019-03-30T13:25:23.130Z,1015.81
2019-03-30T13:26:33.088Z,1015.7
2019-03-30T13:27:43.072Z,1015.64
2019-03-30T13:28:56.328Z,1015.61
2019-03-30T13:30:06.307Z,1015.58
2019-03-30T13:31:16.007Z,1015.59
2019-03-30T13:32:25.995Z,1015.53
2019-03-30T13:33:35.966Z,1015.59
2019-03-30T13:34:45.927Z,1015.7
2019-03-30T13:35:55.649Z,1015.73
2019-03-30T13:37:05.624Z,1015.51
2019-03-30T13:38:15.755Z,1015.55
2019-03-30T13:39:30.855Z,1015.52
2019-03-30T13:40:40.816Z,1015.52
2019-03-30T13:41:50.539Z,1015.46
2019-03-30T13:43:00.245Z,1015.48
2019-03-30T13:44:09.964Z,1015.5
2019-03-30T13:45:19.945Z,1015.54
2019-03-30T13:46:29.655Z,1015.5
2019-03-30T13:47:39.639Z,1015.39
2019-03-30T13:48:49.131Z,1015.52
2019-03-30T13:49:59.093Z,1015.51
2019-03-30T13:51:08.842Z,1015.37
2019-03-30T13:52:18.835Z,1015.31
2019-03-30T13:53:28.553Z,1015.3
2019-03-30T13:54:38.903Z,1015.32
2019-03-30T13:55:48.655Z,1015.29
2019-03-30T13:56:58.365Z,1015.33
2019-03-30T13:58:07.830Z,1015.22
2019-03-30T13:59:17.787Z,1015.28
2019-03-30T14:00:27.248Z,1015.2
2019-03-30T14:01:36.959Z,1015.2
2019-03-30T14:02:46.921Z,1015.07
2019-03-30T14:03:56.958Z,1015.1
2019-03-30T14:05:06.712Z,1015.12
2019-03-30T14:06:16.708Z,1015.21
2019-03-30T14:07:26.421Z,1015.15
2019-03-30T14:08:36.152Z,1015.22
2019-03-30T14:09:46.118Z,1015.24